sensor_id;sensor_type;location;lat;lon;timestamp;P1;durP1;ratioP1;P2;durP2;ratioP2
8652;SDS011;4364;52.426;9.424;2022-10-22T00:01:02;7.73;;;6.73;;
8652;SDS011;4364;52.426;9.424;2022-10-22T00:03:29;6.87;;;6.13;;
8652;SDS011;4364;52.426;9.424;2022-10-22T00:05:56;9.23;;;7.33;;
8652;SDS011;4364;52.426;9.424;2022-10-22T00:08:22;10.57;;;8.30;;
8652;SDS011;4364;52.426;9.424;2022-10-22T00:10:49;9.23;;;7.60;;
8652;SDS011;4364;52.426;9.424;2022-10-22T00:13:16;8.30;;;6.73;;
8652;SDS011;4364;52.426;9.424;2022-10-22T00:15:42;10.57;;;7.33;;
8652;SDS011;4364;52.426;9.424;2022-10-22T00:18:09;9.23;;;7.47;;
8652;SDS011;4364;52.426;9.424;2022-10-22T00:20:35;7.27;;;6.50;;
8652;SDS011;4364;52.426;9.424;2022-10-22T00:23:02;8.87;;;7.20;;
8652;SDS011;4364;52.426;9.424;2022-10-22T00:25:29;7.33;;;6.27;;
8652;SDS011;4364;52.426;9.424;2022-10-22T00:27:56;6.90;;;5.87;;
8652;SDS011;4364;52.426;9.424;2022-10-22T00:30:22;7.60;;;6.30;;
8652;SDS011;4364;52.426;9.424;2022-10-22T00:32:49;7.67;;;5.67;;
8652;SDS011;4364;52.426;9.424;2022-10-22T00:35:15;8.07;;;6.27;;
8652;SDS011;4364;52.426;9.424;2022-10-22T00:37:42;9.03;;;6.10;;
8652;SDS011;4364;52.426;9.424;2022-10-22T00:40:09;9.10;;;7.10;;
8652;SDS011;4364;52.426;9.424;2022-10-22T00:42:35;10.40;;;7.20;;
8652;SDS011;4364;52.426;9.424;2022-10-22T00:47:43;17.53;;;13.77;;
8652;SDS011;4364;52.426;9.424;2022-10-22T00:50:18;15.53;;;12.47;;
8652;SDS011;4364;52.426;9.424;2022-10-22T00:52:49;11.20;;;9.87;;
8652;SDS011;4364;52.426;9.424;2022-10-22T00:55:16;9.53;;;7.73;;
8652;SDS011;4364;52.426;9.424;2022-10-22T00:57:44;7.70;;;6.90;;
8652;SDS011;4364;52.426;9.424;2022-10-22T01:00:12;8.93;;;7.23;;
8652;SDS011;4364;52.426;9.424;2022-10-22T01:02:39;6.77;;;5.97;;
8652;SDS011;4364;52.426;9.424;2022-10-22T01:05:06;8.77;;;6.20;;
8652;SDS011;4364;52.426;9.424;2022-10-22T01:07:33;7.53;;;6.10;;
8652;SDS011;4364;52.426;9.424;2022-10-22T01:10:42;6.27;;;5.67;;
8652;SDS011;4364;52.426;9.424;2022-10-22T01:13:20;6.50;;;4.80;;
8652;SDS011;4364;52.426;9.424;2022-10-22T01:21:35;5.80;;;5.03;;
8652;SDS011;4364;52.426;9.424;2022-10-22T01:29:40;7.67;;;5.57;;
8652;SDS011;4364;52.426;9.424;2022-10-22T01:32:12;8.77;;;6.07;;
8652;SDS011;4364;52.426;9.424;2022-10-22T01:34:43;8.13;;;5.37;;
8652;SDS011;4364;52.426;9.424;2022-10-22T01:37:14;6.33;;;4.90;;
8652;SDS011;4364;52.426;9.424;2022-10-22T01:39:43;7.57;;;5.43;;
8652;SDS011;4364;52.426;9.424;2022-10-22T01:42:12;7.37;;;5.73;;
8652;SDS011;4364;52.426;9.424;2022-10-22T01:44:40;8.63;;;5.90;;
8652;SDS011;4364;52.426;9.424;2022-10-22T01:52:37;7.63;;;5.10;;
8652;SDS011;4364;52.426;9.424;2022-10-22T01:55:15;5.60;;;5.00;;
8652;SDS011;4364;52.426;9.424;2022-10-22T02:00:48;9.03;;;5.80;;
8652;SDS011;4364;52.426;9.424;2022-10-22T02:03:30;6.33;;;5.40;;
8652;SDS011;4364;52.426;9.424;2022-10-22T02:06:04;6.33;;;5.17;;
8652;SDS011;4364;52.426;9.424;2022-10-22T02:08:36;8.10;;;5.27;;
8652;SDS011;4364;52.426;9.424;2022-10-22T02:11:04;7.73;;;5.80;;
8652;SDS011;4364;52.426;9.424;2022-10-22T02:13:42;8.50;;;5.77;;
8652;SDS011;4364;52.426;9.424;2022-10-22T02:16:14;8.40;;;5.90;;
8652;SDS011;4364;52.426;9.424;2022-10-22T02:18:46;7.73;;;5.93;;
8652;SDS011;4364;52.426;9.424;2022-10-22T02:21:19;9.93;;;5.80;;
8652;SDS011;4364;52.426;9.424;2022-10-22T02:23:45;10.13;;;5.50;;
8652;SDS011;4364;52.426;9.424;2022-10-22T02:26:18;7.67;;;5.53;;
8652;SDS011;4364;52.426;9.424;2022-10-22T02:28:57;7.53;;;6.00;;
8652;SDS011;4364;52.426;9.424;2022-10-22T02:31:30;7.97;;;6.10;;
8652;SDS011;4364;52.426;9.424;2022-10-22T02:34:01;7.10;;;5.93;;
8652;SDS011;4364;52.426;9.424;2022-10-22T02:36:33;7.73;;;5.43;;
8652;SDS011;4364;52.426;9.424;2022-10-22T02:39:02;9.67;;;5.80;;
8652;SDS011;4364;52.426;9.424;2022-10-22T02:41:29;9.27;;;5.63;;
8652;SDS011;4364;52.426;9.424;2022-10-22T02:43:56;6.67;;;5.43;;
8652;SDS011;4364;52.426;9.424;2022-10-22T02:46:23;6.37;;;4.53;;
8652;SDS011;4364;52.426;9.424;2022-10-22T02:48:50;9.77;;;5.73;;
8652;SDS011;4364;52.426;9.424;2022-10-22T02:51:17;9.17;;;5.57;;
8652;SDS011;4364;52.426;9.424;2022-10-22T02:53:43;6.53;;;5.30;;
8652;SDS011;4364;52.426;9.424;2022-10-22T02:56:10;5.97;;;4.57;;
8652;SDS011;4364;52.426;9.424;2022-10-22T02:58:37;8.13;;;5.67;;
8652;SDS011;4364;52.426;9.424;2022-10-22T03:01:04;8.57;;;5.67;;
8652;SDS011;4364;52.426;9.424;2022-10-22T03:03:31;7.90;;;5.87;;
8652;SDS011;4364;52.426;9.424;2022-10-22T03:05:57;11.83;;;7.83;;
8652;SDS011;4364;52.426;9.424;2022-10-22T03:08:24;8.43;;;6.87;;
8652;SDS011;4364;52.426;9.424;2022-10-22T03:10:50;8.73;;;6.30;;
8652;SDS011;4364;52.426;9.424;2022-10-22T03:13:17;8.83;;;7.43;;
8652;SDS011;4364;52.426;9.424;2022-10-22T03:15:43;11.10;;;7.43;;
8652;SDS011;4364;52.426;9.424;2022-10-22T03:18:10;7.13;;;5.57;;
8652;SDS011;4364;52.426;9.424;2022-10-22T03:20:37;9.93;;;5.43;;
8652;SDS011;4364;52.426;9.424;2022-10-22T03:23:03;7.50;;;5.70;;
8652;SDS011;4364;52.426;9.424;2022-10-22T03:25:30;8.17;;;5.90;;
8652;SDS011;4364;52.426;9.424;2022-10-22T03:28:01;9.00;;;6.17;;
8652;SDS011;4364;52.426;9.424;2022-10-22T03:30:30;9.53;;;5.90;;
8652;SDS011;4364;52.426;9.424;2022-10-22T03:32:56;6.17;;;5.30;;
8652;SDS011;4364;52.426;9.424;2022-10-22T03:35:23;9.07;;;5.30;;
8652;SDS011;4364;52.426;9.424;2022-10-22T03:37:50;7.30;;;5.27;;
8652;SDS011;4364;52.426;9.424;2022-10-22T03:40:16;7.03;;;5.33;;
8652;SDS011;4364;52.426;9.424;2022-10-22T03:42:43;5.93;;;5.17;;
8652;SDS011;4364;52.426;9.424;2022-10-22T03:45:10;8.27;;;6.17;;
8652;SDS011;4364;52.426;9.424;2022-10-22T03:47:36;7.50;;;6.43;;
8652;SDS011;4364;52.426;9.424;2022-10-22T03:50:04;7.03;;;5.50;;
8652;SDS011;4364;52.426;9.424;2022-10-22T03:52:37;6.40;;;5.27;;
8652;SDS011;4364;52.426;9.424;2022-10-22T03:55:05;7.07;;;5.37;;
8652;SDS011;4364;52.426;9.424;2022-10-22T03:57:33;7.27;;;5.87;;
8652;SDS011;4364;52.426;9.424;2022-10-22T04:00:00;6.20;;;5.57;;
8652;SDS011;4364;52.426;9.424;2022-10-22T04:02:30;7.43;;;5.33;;
8652;SDS011;4364;52.426;9.424;2022-10-22T04:04:56;6.33;;;5.37;;
8652;SDS011;4364;52.426;9.424;2022-10-22T04:07:23;8.77;;;5.77;;
8652;SDS011;4364;52.426;9.424;2022-10-22T04:09:49;10.33;;;6.37;;
8652;SDS011;4364;52.426;9.424;2022-10-22T04:12:16;7.73;;;5.40;;
8652;SDS011;4364;52.426;9.424;2022-10-22T04:14:43;6.17;;;5.10;;
8652;SDS011;4364;52.426;9.424;2022-10-22T04:17:10;12.70;;;6.30;;
8652;SDS011;4364;52.426;9.424;2022-10-22T04:19:36;6.70;;;5.60;;
8652;SDS011;4364;52.426;9.424;2022-10-22T04:22:03;5.57;;;4.97;;
8652;SDS011;4364;52.426;9.424;2022-10-22T04:24:30;7.17;;;5.70;;
8652;SDS011;4364;52.426;9.424;2022-10-22T04:26:57;6.40;;;5.57;;
8652;SDS011;4364;52.426;9.424;2022-10-22T04:29:24;7.77;;;5.60;;
8652;SDS011;4364;52.426;9.424;2022-10-22T04:31:51;6.00;;;5.40;;
8652;SDS011;4364;52.426;9.424;2022-10-22T04:34:17;7.20;;;5.70;;
8652;SDS011;4364;52.426;9.424;2022-10-22T04:36:44;8.07;;;5.30;;
8652;SDS011;4364;52.426;9.424;2022-10-22T04:39:10;5.83;;;4.77;;
8652;SDS011;4364;52.426;9.424;2022-10-22T04:41:37;6.30;;;5.07;;
8652;SDS011;4364;52.426;9.424;2022-10-22T04:44:04;6.43;;;5.23;;
8652;SDS011;4364;52.426;9.424;2022-10-22T04:46:39;10.60;;;5.13;;
8652;SDS011;4364;52.426;9.424;2022-10-22T04:49:05;6.47;;;5.30;;
8652;SDS011;4364;52.426;9.424;2022-10-22T04:51:32;11.10;;;6.23;;
8652;SDS011;4364;52.426;9.424;2022-10-22T04:53:59;8.03;;;5.90;;
8652;SDS011;4364;52.426;9.424;2022-10-22T04:56:27;7.83;;;5.20;;
8652;SDS011;4364;52.426;9.424;2022-10-22T04:58:56;10.27;;;5.70;;
8652;SDS011;4364;52.426;9.424;2022-10-22T05:01:36;6.67;;;5.07;;
8652;SDS011;4364;52.426;9.424;2022-10-22T05:04:12;5.83;;;5.23;;
8652;SDS011;4364;52.426;9.424;2022-10-22T05:06:41;6.53;;;5.77;;
8652;SDS011;4364;52.426;9.424;2022-10-22T05:09:12;6.80;;;5.30;;
8652;SDS011;4364;52.426;9.424;2022-10-22T05:11:41;6.70;;;4.93;;
8652;SDS011;4364;52.426;9.424;2022-10-22T05:14:15;6.53;;;5.73;;
8652;SDS011;4364;52.426;9.424;2022-10-22T05:16:43;6.57;;;5.77;;
8652;SDS011;4364;52.426;9.424;2022-10-22T05:19:15;6.80;;;5.00;;
8652;SDS011;4364;52.426;9.424;2022-10-22T05:21:44;9.00;;;6.43;;
8652;SDS011;4364;52.426;9.424;2022-10-22T05:24:10;8.50;;;6.10;;
8652;SDS011;4364;52.426;9.424;2022-10-22T05:26:37;7.43;;;5.40;;
8652;SDS011;4364;52.426;9.424;2022-10-22T05:29:04;6.10;;;5.20;;
8652;SDS011;4364;52.426;9.424;2022-10-22T05:31:31;9.20;;;6.37;;
8652;SDS011;4364;52.426;9.424;2022-10-22T05:33:57;7.80;;;6.17;;
8652;SDS011;4364;52.426;9.424;2022-10-22T05:36:24;8.10;;;5.63;;
8652;SDS011;4364;52.426;9.424;2022-10-22T05:38:50;6.83;;;6.10;;
8652;SDS011;4364;52.426;9.424;2022-10-22T05:41:18;9.97;;;5.83;;
8652;SDS011;4364;52.426;9.424;2022-10-22T05:43:46;6.17;;;5.30;;
8652;SDS011;4364;52.426;9.424;2022-10-22T05:46:14;6.77;;;5.33;;
8652;SDS011;4364;52.426;9.424;2022-10-22T05:48:58;6.57;;;5.23;;
8652;SDS011;4364;52.426;9.424;2022-10-22T05:51:26;6.13;;;4.93;;
8652;SDS011;4364;52.426;9.424;2022-10-22T05:53:57;6.47;;;4.90;;
8652;SDS011;4364;52.426;9.424;2022-10-22T05:56:27;7.17;;;5.00;;
8652;SDS011;4364;52.426;9.424;2022-10-22T05:58:54;8.30;;;5.63;;
8652;SDS011;4364;52.426;9.424;2022-10-22T06:01:22;7.97;;;5.73;;
8652;SDS011;4364;52.426;9.424;2022-10-22T06:03:53;6.63;;;5.63;;
8652;SDS011;4364;52.426;9.424;2022-10-22T06:06:28;6.63;;;5.50;;
8652;SDS011;4364;52.426;9.424;2022-10-22T06:09:04;7.77;;;6.47;;
8652;SDS011;4364;52.426;9.424;2022-10-22T06:11:36;7.00;;;5.80;;
8652;SDS011;4364;52.426;9.424;2022-10-22T06:14:03;8.57;;;5.90;;
8652;SDS011;4364;52.426;9.424;2022-10-22T06:16:30;6.17;;;5.17;;
8652;SDS011;4364;52.426;9.424;2022-10-22T06:18:57;10.23;;;5.83;;
8652;SDS011;4364;52.426;9.424;2022-10-22T06:21:26;7.27;;;5.10;;
8652;SDS011;4364;52.426;9.424;2022-10-22T06:23:57;8.23;;;5.53;;
8652;SDS011;4364;52.426;9.424;2022-10-22T06:26:24;6.43;;;5.57;;
8652;SDS011;4364;52.426;9.424;2022-10-22T06:28:51;8.03;;;5.70;;
8652;SDS011;4364;52.426;9.424;2022-10-22T06:31:18;8.30;;;5.67;;
8652;SDS011;4364;52.426;9.424;2022-10-22T06:33:44;7.43;;;5.57;;
8652;SDS011;4364;52.426;9.424;2022-10-22T06:36:13;9.17;;;5.93;;
8652;SDS011;4364;52.426;9.424;2022-10-22T06:38:43;6.37;;;5.17;;
8652;SDS011;4364;52.426;9.424;2022-10-22T06:41:14;6.03;;;5.30;;
8652;SDS011;4364;52.426;9.424;2022-10-22T06:43:42;6.90;;;5.27;;
8652;SDS011;4364;52.426;9.424;2022-10-22T06:46:14;6.20;;;5.50;;
8652;SDS011;4364;52.426;9.424;2022-10-22T06:48:52;7.00;;;5.70;;
8652;SDS011;4364;52.426;9.424;2022-10-22T06:51:22;8.03;;;6.20;;
8652;SDS011;4364;52.426;9.424;2022-10-22T06:53:50;8.20;;;5.33;;
8652;SDS011;4364;52.426;9.424;2022-10-22T06:56:17;6.00;;;5.40;;
8652;SDS011;4364;52.426;9.424;2022-10-22T06:58:46;10.13;;;6.03;;
8652;SDS011;4364;52.426;9.424;2022-10-22T07:01:14;8.17;;;5.83;;
8652;SDS011;4364;52.426;9.424;2022-10-22T07:03:42;7.30;;;5.27;;
8652;SDS011;4364;52.426;9.424;2022-10-22T07:06:09;6.63;;;5.27;;
8652;SDS011;4364;52.426;9.424;2022-10-22T07:08:38;7.97;;;5.77;;
8652;SDS011;4364;52.426;9.424;2022-10-22T07:11:06;7.40;;;5.67;;
8652;SDS011;4364;52.426;9.424;2022-10-22T07:13:40;9.10;;;5.93;;
8652;SDS011;4364;52.426;9.424;2022-10-22T07:16:07;8.70;;;6.13;;
8652;SDS011;4364;52.426;9.424;2022-10-22T07:18:35;8.37;;;5.87;;
8652;SDS011;4364;52.426;9.424;2022-10-22T07:21:03;8.47;;;6.40;;
8652;SDS011;4364;52.426;9.424;2022-10-22T07:23:31;7.73;;;5.33;;
8652;SDS011;4364;52.426;9.424;2022-10-22T07:25:58;6.67;;;5.57;;
8652;SDS011;4364;52.426;9.424;2022-10-22T07:28:27;7.43;;;6.00;;
8652;SDS011;4364;52.426;9.424;2022-10-22T07:30:55;5.90;;;5.30;;
8652;SDS011;4364;52.426;9.424;2022-10-22T07:33:21;11.53;;;6.53;;
8652;SDS011;4364;52.426;9.424;2022-10-22T07:35:48;7.87;;;6.77;;
8652;SDS011;4364;52.426;9.424;2022-10-22T07:38:14;9.13;;;6.27;;
8652;SDS011;4364;52.426;9.424;2022-10-22T07:40:41;8.13;;;5.87;;
8652;SDS011;4364;52.426;9.424;2022-10-22T07:43:07;9.57;;;7.00;;
8652;SDS011;4364;52.426;9.424;2022-10-22T07:45:34;9.63;;;6.40;;
8652;SDS011;4364;52.426;9.424;2022-10-22T07:48:00;6.87;;;5.80;;
8652;SDS011;4364;52.426;9.424;2022-10-22T07:50:28;8.23;;;6.50;;
8652;SDS011;4364;52.426;9.424;2022-10-22T07:52:54;6.63;;;5.40;;
8652;SDS011;4364;52.426;9.424;2022-10-22T07:55:23;8.03;;;6.07;;
8652;SDS011;4364;52.426;9.424;2022-10-22T07:57:50;6.47;;;5.10;;
8652;SDS011;4364;52.426;9.424;2022-10-22T08:00:16;9.70;;;5.90;;
8652;SDS011;4364;52.426;9.424;2022-10-22T08:02:48;9.30;;;5.27;;
8652;SDS011;4364;52.426;9.424;2022-10-22T08:05:14;6.63;;;5.07;;
8652;SDS011;4364;52.426;9.424;2022-10-22T08:07:41;8.90;;;5.37;;
8652;SDS011;4364;52.426;9.424;2022-10-22T08:10:08;7.17;;;4.73;;
8652;SDS011;4364;52.426;9.424;2022-10-22T08:12:36;4.90;;;4.03;;
8652;SDS011;4364;52.426;9.424;2022-10-22T08:15:04;5.50;;;4.40;;
8652;SDS011;4364;52.426;9.424;2022-10-22T08:17:32;6.87;;;4.80;;
8652;SDS011;4364;52.426;9.424;2022-10-22T08:19:58;7.37;;;4.67;;
8652;SDS011;4364;52.426;9.424;2022-10-22T08:22:26;8.73;;;5.07;;
8652;SDS011;4364;52.426;9.424;2022-10-22T08:24:52;8.40;;;4.60;;
8652;SDS011;4364;52.426;9.424;2022-10-22T08:27:19;8.63;;;4.40;;
8652;SDS011;4364;52.426;9.424;2022-10-22T08:29:45;8.67;;;4.87;;
8652;SDS011;4364;52.426;9.424;2022-10-22T08:32:13;7.60;;;4.27;;
8652;SDS011;4364;52.426;9.424;2022-10-22T08:34:39;7.23;;;4.70;;
8652;SDS011;4364;52.426;9.424;2022-10-22T08:37:06;6.20;;;4.23;;
8652;SDS011;4364;52.426;9.424;2022-10-22T08:39:34;5.43;;;4.43;;
8652;SDS011;4364;52.426;9.424;2022-10-22T08:42:05;9.20;;;4.87;;
8652;SDS011;4364;52.426;9.424;2022-10-22T08:44:47;8.07;;;4.40;;
8652;SDS011;4364;52.426;9.424;2022-10-22T08:50:39;7.20;;;3.97;;
8652;SDS011;4364;52.426;9.424;2022-10-22T08:53:11;5.90;;;3.57;;
8652;SDS011;4364;52.426;9.424;2022-10-22T08:55:40;6.83;;;3.80;;
8652;SDS011;4364;52.426;9.424;2022-10-22T08:58:28;7.87;;;3.83;;
8652;SDS011;4364;52.426;9.424;2022-10-22T09:01:18;7.87;;;3.50;;
8652;SDS011;4364;52.426;9.424;2022-10-22T09:06:47;6.83;;;3.50;;
8652;SDS011;4364;52.426;9.424;2022-10-22T09:09:19;8.97;;;3.67;;
8652;SDS011;4364;52.426;9.424;2022-10-22T09:11:47;5.63;;;3.53;;
8652;SDS011;4364;52.426;9.424;2022-10-22T09:14:17;7.30;;;4.03;;
8652;SDS011;4364;52.426;9.424;2022-10-22T09:19:32;5.47;;;3.30;;
8652;SDS011;4364;52.426;9.424;2022-10-22T09:27:45;6.00;;;3.73;;
8652;SDS011;4364;52.426;9.424;2022-10-22T09:30:14;9.20;;;4.00;;
8652;SDS011;4364;52.426;9.424;2022-10-22T09:32:45;8.13;;;3.80;;
8652;SDS011;4364;52.426;9.424;2022-10-22T09:35:20;7.07;;;3.80;;
8652;SDS011;4364;52.426;9.424;2022-10-22T09:37:50;10.70;;;4.40;;
8652;SDS011;4364;52.426;9.424;2022-10-22T09:40:18;7.17;;;4.20;;
8652;SDS011;4364;52.426;9.424;2022-10-22T09:42:46;5.93;;;3.80;;
8652;SDS011;4364;52.426;9.424;2022-10-22T09:45:18;9.50;;;3.87;;
8652;SDS011;4364;52.426;9.424;2022-10-22T09:48:02;7.90;;;3.60;;
8652;SDS011;4364;52.426;9.424;2022-10-22T09:50:49;5.77;;;3.40;;
8652;SDS011;4364;52.426;9.424;2022-10-22T09:53:31;6.40;;;3.37;;
8652;SDS011;4364;52.426;9.424;2022-10-22T09:56:06;7.87;;;3.43;;
8652;SDS011;4364;52.426;9.424;2022-10-22T09:58:42;6.37;;;3.20;;
8652;SDS011;4364;52.426;9.424;2022-10-22T10:01:43;6.10;;;3.73;;
8652;SDS011;4364;52.426;9.424;2022-10-22T10:04:10;6.57;;;3.67;;
8652;SDS011;4364;52.426;9.424;2022-10-22T10:06:40;7.20;;;3.27;;
8652;SDS011;4364;52.426;9.424;2022-10-22T10:09:18;8.50;;;3.60;;
8652;SDS011;4364;52.426;9.424;2022-10-22T10:14:56;7.60;;;3.87;;
8652;SDS011;4364;52.426;9.424;2022-10-22T10:20:14;7.30;;;4.03;;
8652;SDS011;4364;52.426;9.424;2022-10-22T10:25:30;8.93;;;3.63;;
8652;SDS011;4364;52.426;9.424;2022-10-22T10:28:26;8.70;;;3.80;;
8652;SDS011;4364;52.426;9.424;2022-10-22T10:31:05;5.97;;;3.43;;
8652;SDS011;4364;52.426;9.424;2022-10-22T10:36:17;9.23;;;3.63;;
8652;SDS011;4364;52.426;9.424;2022-10-22T10:38:55;8.53;;;3.40;;
8652;SDS011;4364;52.426;9.424;2022-10-22T10:46:46;5.70;;;3.43;;
8652;SDS011;4364;52.426;9.424;2022-10-22T10:49:29;8.47;;;3.80;;
8652;SDS011;4364;52.426;9.424;2022-10-22T10:52:13;7.73;;;3.73;;
8652;SDS011;4364;52.426;9.424;2022-10-22T11:05:31;7.30;;;3.57;;
8652;SDS011;4364;52.426;9.424;2022-10-22T11:08:12;10.20;;;3.53;;
8652;SDS011;4364;52.426;9.424;2022-10-22T11:16:29;8.00;;;3.93;;
8652;SDS011;4364;52.426;9.424;2022-10-22T11:19:06;8.53;;;3.50;;
8652;SDS011;4364;52.426;9.424;2022-10-22T11:21:52;11.80;;;4.00;;
8652;SDS011;4364;52.426;9.424;2022-10-22T11:24:39;8.60;;;3.40;;
8652;SDS011;4364;52.426;9.424;2022-10-22T11:27:24;8.97;;;3.43;;
8652;SDS011;4364;52.426;9.424;2022-10-22T11:30:05;7.40;;;3.23;;
8652;SDS011;4364;52.426;9.424;2022-10-22T11:32:38;9.87;;;3.43;;
8652;SDS011;4364;52.426;9.424;2022-10-22T11:35:10;7.57;;;3.10;;
8652;SDS011;4364;52.426;9.424;2022-10-22T11:37:41;6.83;;;3.20;;
8652;SDS011;4364;52.426;9.424;2022-10-22T11:40:15;8.60;;;3.40;;
8652;SDS011;4364;52.426;9.424;2022-10-22T11:42:51;8.03;;;3.00;;
8652;SDS011;4364;52.426;9.424;2022-10-22T11:52:52;11.17;;;3.70;;
8652;SDS011;4364;52.426;9.424;2022-10-22T11:58:00;7.43;;;3.50;;
8652;SDS011;4364;52.426;9.424;2022-10-22T12:00:47;8.83;;;3.67;;
8652;SDS011;4364;52.426;9.424;2022-10-22T12:03:19;8.93;;;3.50;;
8652;SDS011;4364;52.426;9.424;2022-10-22T12:08:41;8.03;;;3.37;;
8652;SDS011;4364;52.426;9.424;2022-10-22T12:16:55;9.17;;;3.30;;
8652;SDS011;4364;52.426;9.424;2022-10-22T12:21:53;9.50;;;3.10;;
8652;SDS011;4364;52.426;9.424;2022-10-22T12:24:23;9.93;;;3.07;;
8652;SDS011;4364;52.426;9.424;2022-10-22T12:26:54;9.53;;;3.20;;
8652;SDS011;4364;52.426;9.424;2022-10-22T12:29:21;7.90;;;2.97;;
8652;SDS011;4364;52.426;9.424;2022-10-22T12:31:51;8.30;;;3.47;;
8652;SDS011;4364;52.426;9.424;2022-10-22T12:34:21;8.60;;;3.23;;
8652;SDS011;4364;52.426;9.424;2022-10-22T12:36:50;9.23;;;3.53;;
8652;SDS011;4364;52.426;9.424;2022-10-22T12:39:19;8.20;;;3.30;;
8652;SDS011;4364;52.426;9.424;2022-10-22T12:41:49;10.37;;;3.13;;
8652;SDS011;4364;52.426;9.424;2022-10-22T12:44:17;8.77;;;3.43;;
8652;SDS011;4364;52.426;9.424;2022-10-22T12:46:45;6.77;;;2.87;;
8652;SDS011;4364;52.426;9.424;2022-10-22T12:49:20;10.30;;;3.33;;
8652;SDS011;4364;52.426;9.424;2022-10-22T12:51:48;5.77;;;3.10;;
8652;SDS011;4364;52.426;9.424;2022-10-22T12:56:53;6.27;;;3.23;;
8652;SDS011;4364;52.426;9.424;2022-10-22T12:59:22;10.07;;;2.97;;
8652;SDS011;4364;52.426;9.424;2022-10-22T13:01:51;8.57;;;2.93;;
8652;SDS011;4364;52.426;9.424;2022-10-22T13:04:30;8.97;;;2.87;;
8652;SDS011;4364;52.426;9.424;2022-10-22T13:12:23;8.40;;;3.40;;
8652;SDS011;4364;52.426;9.424;2022-10-22T13:14:51;6.10;;;3.10;;
8652;SDS011;4364;52.426;9.424;2022-10-22T13:25:19;7.87;;;2.70;;
8652;SDS011;4364;52.426;9.424;2022-10-22T13:27:58;9.03;;;3.57;;
8652;SDS011;4364;52.426;9.424;2022-10-22T13:30:29;6.93;;;2.37;;
8652;SDS011;4364;52.426;9.424;2022-10-22T13:33:05;8.20;;;2.87;;
8652;SDS011;4364;52.426;9.424;2022-10-22T13:35:48;7.20;;;3.03;;
8652;SDS011;4364;52.426;9.424;2022-10-22T13:38:16;7.27;;;2.57;;
8652;SDS011;4364;52.426;9.424;2022-10-22T13:40:44;5.33;;;3.03;;
8652;SDS011;4364;52.426;9.424;2022-10-22T13:43:12;6.90;;;2.53;;
8652;SDS011;4364;52.426;9.424;2022-10-22T13:45:38;4.43;;;2.57;;
8652;SDS011;4364;52.426;9.424;2022-10-22T13:48:05;6.80;;;2.90;;
8652;SDS011;4364;52.426;9.424;2022-10-22T13:50:37;7.80;;;2.33;;
8652;SDS011;4364;52.426;9.424;2022-10-22T13:53:04;6.27;;;2.80;;
8652;SDS011;4364;52.426;9.424;2022-10-22T13:55:31;4.63;;;2.20;;
8652;SDS011;4364;52.426;9.424;2022-10-22T14:00:42;6.83;;;2.60;;
8652;SDS011;4364;52.426;9.424;2022-10-22T14:03:12;6.17;;;3.07;;
8652;SDS011;4364;52.426;9.424;2022-10-22T14:05:45;6.97;;;3.00;;
8652;SDS011;4364;52.426;9.424;2022-10-22T14:08:19;8.77;;;2.97;;
8652;SDS011;4364;52.426;9.424;2022-10-22T14:10:47;10.40;;;2.60;;
8652;SDS011;4364;52.426;9.424;2022-10-22T14:13:15;7.23;;;2.70;;
8652;SDS011;4364;52.426;9.424;2022-10-22T14:15:44;6.57;;;2.77;;
8652;SDS011;4364;52.426;9.424;2022-10-22T14:18:18;7.37;;;3.50;;
8652;SDS011;4364;52.426;9.424;2022-10-22T14:20:58;11.20;;;4.77;;
8652;SDS011;4364;52.426;9.424;2022-10-22T14:23:30;10.33;;;3.77;;
8652;SDS011;4364;52.426;9.424;2022-10-22T14:25:57;5.43;;;2.97;;
8652;SDS011;4364;52.426;9.424;2022-10-22T14:28:27;7.93;;;3.70;;
8652;SDS011;4364;52.426;9.424;2022-10-22T14:30:56;5.03;;;3.20;;
8652;SDS011;4364;52.426;9.424;2022-10-22T14:36:00;5.90;;;3.13;;
8652;SDS011;4364;52.426;9.424;2022-10-22T14:38:27;7.60;;;3.27;;
8652;SDS011;4364;52.426;9.424;2022-10-22T14:40:54;6.10;;;2.70;;
8652;SDS011;4364;52.426;9.424;2022-10-22T14:43:23;6.13;;;2.60;;
8652;SDS011;4364;52.426;9.424;2022-10-22T14:45:51;8.63;;;3.13;;
8652;SDS011;4364;52.426;9.424;2022-10-22T14:48:18;7.43;;;3.27;;
8652;SDS011;4364;52.426;9.424;2022-10-22T14:50:49;4.53;;;2.87;;
8652;SDS011;4364;52.426;9.424;2022-10-22T14:53:16;8.43;;;3.47;;
8652;SDS011;4364;52.426;9.424;2022-10-22T14:55:43;6.87;;;3.03;;
8652;SDS011;4364;52.426;9.424;2022-10-22T14:58:12;6.73;;;2.90;;
8652;SDS011;4364;52.426;9.424;2022-10-22T15:00:39;7.90;;;2.87;;
8652;SDS011;4364;52.426;9.424;2022-10-22T15:03:08;6.53;;;3.03;;
8652;SDS011;4364;52.426;9.424;2022-10-22T15:05:35;6.10;;;2.90;;
8652;SDS011;4364;52.426;9.424;2022-10-22T15:08:07;7.53;;;2.70;;
8652;SDS011;4364;52.426;9.424;2022-10-22T15:10:33;5.67;;;2.90;;
8652;SDS011;4364;52.426;9.424;2022-10-22T15:13:01;7.47;;;2.70;;
8652;SDS011;4364;52.426;9.424;2022-10-22T15:15:28;7.27;;;2.80;;
8652;SDS011;4364;52.426;9.424;2022-10-22T15:18:03;4.40;;;2.30;;
8652;SDS011;4364;52.426;9.424;2022-10-22T15:20:29;8.10;;;3.00;;
8652;SDS011;4364;52.426;9.424;2022-10-22T15:22:56;6.27;;;2.67;;
8652;SDS011;4364;52.426;9.424;2022-10-22T15:25:22;8.87;;;2.77;;
8652;SDS011;4364;52.426;9.424;2022-10-22T15:27:49;7.13;;;2.57;;
8652;SDS011;4364;52.426;9.424;2022-10-22T15:30:18;5.87;;;2.23;;
8652;SDS011;4364;52.426;9.424;2022-10-22T15:32:45;4.17;;;2.67;;
8652;SDS011;4364;52.426;9.424;2022-10-22T15:35:12;6.47;;;2.43;;
8652;SDS011;4364;52.426;9.424;2022-10-22T15:37:39;4.27;;;2.37;;
8652;SDS011;4364;52.426;9.424;2022-10-22T15:40:06;7.03;;;2.77;;
8652;SDS011;4364;52.426;9.424;2022-10-22T15:42:33;7.43;;;2.77;;
8652;SDS011;4364;52.426;9.424;2022-10-22T15:45:00;8.40;;;2.40;;
8652;SDS011;4364;52.426;9.424;2022-10-22T15:47:27;8.73;;;3.27;;
8652;SDS011;4364;52.426;9.424;2022-10-22T15:49:56;7.03;;;2.47;;
8652;SDS011;4364;52.426;9.424;2022-10-22T15:52:22;8.87;;;4.23;;
8652;SDS011;4364;52.426;9.424;2022-10-22T15:54:49;6.83;;;3.30;;
8652;SDS011;4364;52.426;9.424;2022-10-22T15:57:16;5.40;;;2.70;;
8652;SDS011;4364;52.426;9.424;2022-10-22T15:59:42;6.83;;;4.07;;
8652;SDS011;4364;52.426;9.424;2022-10-22T16:02:09;5.50;;;3.47;;
8652;SDS011;4364;52.426;9.424;2022-10-22T16:04:37;3.77;;;2.83;;
8652;SDS011;4364;52.426;9.424;2022-10-22T16:07:04;7.10;;;3.07;;
8652;SDS011;4364;52.426;9.424;2022-10-22T16:09:30;5.93;;;3.17;;
8652;SDS011;4364;52.426;9.424;2022-10-22T16:11:57;9.30;;;3.50;;
8652;SDS011;4364;52.426;9.424;2022-10-22T16:14:23;5.67;;;3.23;;
8652;SDS011;4364;52.426;9.424;2022-10-22T16:16:51;4.87;;;3.30;;
8652;SDS011;4364;52.426;9.424;2022-10-22T16:19:20;6.87;;;3.90;;
8652;SDS011;4364;52.426;9.424;2022-10-22T16:21:49;5.00;;;3.23;;
8652;SDS011;4364;52.426;9.424;2022-10-22T16:24:17;5.63;;;3.20;;
8652;SDS011;4364;52.426;9.424;2022-10-22T16:26:43;10.03;;;3.77;;
8652;SDS011;4364;52.426;9.424;2022-10-22T16:29:10;6.90;;;4.03;;
8652;SDS011;4364;52.426;9.424;2022-10-22T16:31:38;7.33;;;3.87;;
8652;SDS011;4364;52.426;9.424;2022-10-22T16:34:05;5.93;;;3.73;;
8652;SDS011;4364;52.426;9.424;2022-10-22T16:36:32;5.67;;;4.00;;
8652;SDS011;4364;52.426;9.424;2022-10-22T16:39:01;7.83;;;3.93;;
8652;SDS011;4364;52.426;9.424;2022-10-22T16:41:28;7.00;;;3.60;;
8652;SDS011;4364;52.426;9.424;2022-10-22T16:44:02;7.40;;;3.97;;
8652;SDS011;4364;52.426;9.424;2022-10-22T16:46:31;7.53;;;3.83;;
8652;SDS011;4364;52.426;9.424;2022-10-22T16:48:58;8.67;;;3.77;;
8652;SDS011;4364;52.426;9.424;2022-10-22T16:51:25;6.50;;;4.20;;
8652;SDS011;4364;52.426;9.424;2022-10-22T16:53:53;8.60;;;4.53;;
8652;SDS011;4364;52.426;9.424;2022-10-22T16:56:21;12.23;;;5.20;;
8652;SDS011;4364;52.426;9.424;2022-10-22T16:58:51;7.83;;;4.80;;
8652;SDS011;4364;52.426;9.424;2022-10-22T17:01:19;9.90;;;5.20;;
8652;SDS011;4364;52.426;9.424;2022-10-22T17:03:47;6.23;;;4.63;;
8652;SDS011;4364;52.426;9.424;2022-10-22T17:06:14;11.67;;;5.80;;
8652;SDS011;4364;52.426;9.424;2022-10-22T17:08:41;10.90;;;5.80;;
8652;SDS011;4364;52.426;9.424;2022-10-22T17:11:12;9.63;;;4.90;;
8652;SDS011;4364;52.426;9.424;2022-10-22T17:13:46;9.80;;;4.93;;
8652;SDS011;4364;52.426;9.424;2022-10-22T17:16:14;8.13;;;4.77;;
8652;SDS011;4364;52.426;9.424;2022-10-22T17:18:42;5.73;;;4.33;;
8652;SDS011;4364;52.426;9.424;2022-10-22T17:21:16;6.77;;;4.23;;
8652;SDS011;4364;52.426;9.424;2022-10-22T17:23:43;6.60;;;4.00;;